createdAt,value
2018-09-06T00:00:47.224Z,1012.72
2018-09-06T00:01:47.208Z,1012.67
2018-09-06T00:02:47.193Z,1012.71
2018-09-06T00:03:47.177Z,1012.69
2018-09-06T00:04:47.200Z,1012.69
2018-09-06T00:05:47.150Z,1012.75
2018-09-06T00:06:47.133Z,1012.77
2018-09-06T00:07:47.117Z,1012.71
2018-09-06T00:08:47.103Z,1012.72
2018-09-06T00:09:47.090Z,1012.73
2018-09-06T00:10:47.071Z,1012.73
2018-09-06T00:11:47.060Z,1012.70
2018-09-06T00:12:47.040Z,1012.68
2018-09-06T00:13:47.024Z,1012.71
2018-09-06T00:14:47.012Z,1012.71
2018-09-06T00:15:46.995Z,1012.71
2018-09-06T00:16:46.979Z,1012.69
2018-09-06T00:17:46.970Z,1012.74
2018-09-06T00:18:46.948Z,1012.69
2018-09-06T00:19:46.935Z,1012.75
2018-09-06T00:20:46.917Z,1012.69
2018-09-06T00:21:46.907Z,1012.66
2018-09-06T00:22:46.886Z,1012.70
2018-09-06T00:23:46.873Z,1012.70
2018-09-06T00:24:46.855Z,1012.71
2018-09-06T00:25:46.840Z,1012.73
2018-09-06T00:26:46.825Z,1012.72
2018-09-06T00:27:46.812Z,1012.74
2018-09-06T00:28:46.795Z,1012.70
2018-09-06T00:29:46.782Z,1012.73
2018-09-06T00:30:46.764Z,1012.67
2018-09-06T00:31:46.757Z,1012.72
2018-09-06T00:32:46.733Z,1012.73
2018-09-06T00:33:46.716Z,1012.70
2018-09-06T00:34:46.701Z,1012.71
2018-09-06T00:35:46.689Z,1012.70
2018-09-06T00:36:46.678Z,1012.68
2018-09-06T00:37:46.653Z,1012.67
2018-09-06T00:38:46.643Z,1012.66
2018-09-06T00:39:46.624Z,1012.66
2018-09-06T00:40:46.611Z,1012.61
2018-09-06T00:41:46.592Z,1012.62
2018-09-06T00:42:46.577Z,1012.63
2018-09-06T00:43:46.561Z,1012.61
2018-09-06T00:44:46.550Z,1012.64
2018-09-06T00:45:46.529Z,1012.60
2018-09-06T00:46:46.517Z,1012.63
2018-09-06T00:47:47.512Z,1012.63
2018-09-06T00:48:46.487Z,1012.58
2018-09-06T00:49:46.466Z,1012.58
2018-09-06T00:50:46.451Z,1012.57
2018-09-06T00:51:46.436Z,1012.56
2018-09-06T00:52:46.420Z,1012.59
2018-09-06T00:53:46.404Z,1012.55
2018-09-06T00:54:46.388Z,1012.60
2018-09-06T00:55:46.372Z,1012.59
2018-09-06T00:56:46.356Z,1012.59
2018-09-06T00:57:46.340Z,1012.58
2018-09-06T00:58:46.330Z,1012.60
2018-09-06T00:59:46.310Z,1012.57
2018-09-06T01:00:46.294Z,1012.56
2018-09-06T01:01:46.280Z,1012.56
2018-09-06T01:02:46.261Z,1012.54
2018-09-06T01:03:46.248Z,1012.56
2018-09-06T01:04:46.231Z,1012.54
2018-09-06T01:05:46.218Z,1012.50
2018-09-06T01:06:46.200Z,1012.54
2018-09-06T01:07:46.234Z,1012.54
2018-09-06T01:08:46.166Z,1012.54
2018-09-06T01:09:46.150Z,1012.53
2018-09-06T01:10:46.136Z,1012.53
2018-09-06T01:11:46.121Z,1012.53
2018-09-06T01:12:46.104Z,1012.48
2018-09-06T01:13:46.093Z,1012.49
2018-09-06T01:14:46.073Z,1012.48
2018-09-06T01:15:46.058Z,1012.43
2018-09-06T01:16:46.041Z,1012.46
2018-09-06T01:17:46.026Z,1012.47
2018-09-06T01:18:46.010Z,1012.45
2018-09-06T01:19:45.994Z,1012.47
2018-09-06T01:20:45.978Z,1012.46
2018-09-06T01:21:45.962Z,1012.48
2018-09-06T01:22:45.947Z,1012.49
2018-09-06T01:23:45.933Z,1012.48
2018-09-06T01:24:45.916Z,1012.47
2018-09-06T01:25:45.899Z,1012.45
2018-09-06T01:26:45.883Z,1012.44
2018-09-06T01:27:45.867Z,1012.46
2018-09-06T01:28:45.852Z,1012.45
2018-09-06T01:29:45.841Z,1012.46
2018-09-06T01:30:45.819Z,1012.43
2018-09-06T01:31:45.808Z,1012.42
2018-09-06T01:32:45.788Z,1012.39
2018-09-06T01:33:45.770Z,1012.36
2018-09-06T01:34:45.757Z,1012.39
2018-09-06T01:35:45.743Z,1012.36
2018-09-06T01:36:45.725Z,1012.38
2018-09-06T01:37:45.708Z,1012.38
2018-09-06T01:38:45.693Z,1012.38
2018-09-06T01:39:45.679Z,1012.39
2018-09-06T01:40:45.662Z,1012.39
2018-09-06T01:41:45.646Z,1012.35
2018-09-06T01:42:45.629Z,1012.39
2018-09-06T01:43:45.614Z,1012.36
2018-09-06T01:44:45.596Z,1012.37
2018-09-06T01:45:45.621Z,1012.35
2018-09-06T01:46:45.569Z,1012.37
2018-09-06T01:47:45.554Z,1012.34
2018-09-06T01:48:45.536Z,1012.35
2018-09-06T01:49:45.519Z,1012.38
2018-09-06T01:50:45.536Z,1012.35
2018-09-06T01:51:45.491Z,1012.33
2018-09-06T01:52:45.471Z,1012.35
2018-09-06T01:53:45.459Z,1012.34
2018-09-06T01:54:45.440Z,1012.31
2018-09-06T01:55:45.425Z,1012.30
2018-09-06T01:56:45.409Z,1012.34
2018-09-06T01:57:45.393Z,1012.33
2018-09-06T01:58:45.377Z,1012.33
2018-09-06T01:59:45.361Z,1012.32
2018-09-06T02:00:45.351Z,1012.33
2018-09-06T02:01:45.380Z,1012.31
2018-09-06T02:02:45.316Z,1012.34
2018-09-06T02:03:45.300Z,1012.31
2018-09-06T02:04:45.287Z,1012.30
2018-09-06T02:05:45.268Z,1012.33
2018-09-06T02:06:45.252Z,1012.33
2018-09-06T02:07:45.235Z,1012.32
2018-09-06T02:08:45.220Z,1012.34
2018-09-06T02:09:45.204Z,1012.28
2018-09-06T02:10:45.191Z,1012.32
2018-09-06T02:11:45.172Z,1012.30
2018-09-06T02:12:45.160Z,1012.27
2018-09-06T02:13:45.143Z,1012.31
2018-09-06T02:14:45.128Z,1012.30
2018-09-06T02:15:45.110Z,1012.28
2018-09-06T02:16:45.096Z,1012.30
2018-09-06T02:17:45.080Z,1012.23
2018-09-06T02:18:45.065Z,1012.23
2018-09-06T02:19:45.049Z,1012.26
2018-09-06T02:20:45.032Z,1012.24
2018-09-06T02:21:45.016Z,1012.21
2018-09-06T02:22:45.003Z,1012.20
2018-09-06T02:23:44.988Z,1012.25
2018-09-06T02:24:44.968Z,1012.21
2018-09-06T02:25:44.953Z,1012.22
2018-09-06T02:26:44.937Z,1012.19
2018-09-06T02:27:44.923Z,1012.19
2018-09-06T02:28:44.912Z,1012.19
2018-09-06T02:29:44.890Z,1012.20
2018-09-06T02:30:44.873Z,1012.21
2018-09-06T02:31:44.866Z,1012.15
2018-09-06T02:32:44.844Z,1012.15
2018-09-06T02:33:44.832Z,1012.17
2018-09-06T02:34:44.814Z,1012.13
2018-09-06T02:35:44.798Z,1012.16
2018-09-06T02:36:44.781Z,1012.13
2018-09-06T02:37:44.767Z,1012.12
2018-09-06T02:38:44.750Z,1012.12
2018-09-06T02:39:44.733Z,1012.10
2018-09-06T02:40:44.720Z,1012.12
2018-09-06T02:41:44.703Z,1012.13
2018-09-06T02:42:44.686Z,1012.13
2018-09-06T02:43:44.683Z,1012.10
2018-09-06T02:44:44.657Z,1012.10
2018-09-06T02:45:44.639Z,1012.08
2018-09-06T02:46:44.625Z,1012.09
2018-09-06T02:47:44.612Z,1012.06
2018-09-06T02:48:44.602Z,1012.08
2018-09-06T02:49:44.580Z,1012.06
2018-09-06T02:50:44.561Z,1012.05
2018-09-06T02:51:44.545Z,1012.03
2018-09-06T02:52:44.531Z,1012.02
2018-09-06T02:53:44.535Z,1012.03
2018-09-06T02:54:44.499Z,1012.00
2018-09-06T02:55:44.485Z,1012.02
2018-09-06T02:56:44.466Z,1011.98
2018-09-06T02:57:44.451Z,1011.97
2018-09-06T02:58:44.444Z,1011.97
2018-09-06T02:59:44.422Z,1011.97
2018-09-06T03:00:44.409Z,1011.95
2018-09-06T03:01:44.391Z,1011.96
2018-09-06T03:02:44.373Z,1011.91
2018-09-06T03:03:44.357Z,1011.90
2018-09-06T03:04:44.341Z,1011.88
2018-09-06T03:05:44.326Z,1011.90
2018-09-06T03:06:44.309Z,1011.90
2018-09-06T03:07:44.296Z,1011.88
2018-09-06T03:08:44.277Z,1011.82
2018-09-06T03:09:44.293Z,1011.84
2018-09-06T03:10:44.247Z,1011.81
2018-09-06T03:11:44.231Z,1011.87
2018-09-06T03:12:44.216Z,1011.82
2018-09-06T03:13:44.200Z,1011.81
2018-09-06T03:14:44.184Z,1011.79
2018-09-06T03:15:44.168Z,1011.82
2018-09-06T03:16:44.152Z,1011.79
2018-09-06T03:17:44.138Z,1011.80
2018-09-06T03:18:44.122Z,1011.75
2018-09-06T03:19:44.109Z,1011.79
2018-09-06T03:20:44.092Z,1011.78
2018-09-06T03:21:44.077Z,1011.73
2018-09-06T03:22:44.061Z,1011.81
2018-09-06T03:23:44.044Z,1011.75
2018-09-06T03:24:44.028Z,1011.72
2018-09-06T03:25:44.014Z,1011.73
2018-09-06T03:26:43.995Z,1011.72
2018-09-06T03:27:43.982Z,1011.75
2018-09-06T03:28:43.966Z,1011.73
2018-09-06T03:29:43.951Z,1011.74
2018-09-06T03:30:43.934Z,1011.67
2018-09-06T03:31:43.921Z,1011.68
2018-09-06T03:32:43.902Z,1011.74
2018-09-06T03:33:43.891Z,1011.76
2018-09-06T03:34:43.872Z,1011.73
2018-09-06T03:35:43.854Z,1011.73
2018-09-06T03:36:43.838Z,1011.75
2018-09-06T03:37:43.825Z,1011.73
2018-09-06T03:38:43.809Z,1011.72
2018-09-06T03:39:43.792Z,1011.73
2018-09-06T03:40:43.776Z,1011.74
2018-09-06T03:41:43.760Z,1011.72
2018-09-06T03:42:43.746Z,1011.76
2018-09-06T03:43:43.730Z,1011.72
2018-09-06T03:44:43.712Z,1011.73
2018-09-06T03:45:43.698Z,1011.76
2018-09-06T03:46:43.681Z,1011.77
2018-09-06T03:47:43.666Z,1011.75
2018-09-06T03:48:43.670Z,1011.76
2018-09-06T03:49:43.634Z,1011.75
2018-09-06T03:50:43.618Z,1011.75
2018-09-06T03:51:43.608Z,1011.72
2018-09-06T03:52:43.585Z,1011.68
2018-09-06T03:53:43.570Z,1011.71
2018-09-06T03:54:43.553Z,1011.71
2018-09-06T03:55:43.538Z,1011.70
2018-09-06T03:56:43.524Z,1011.72
2018-09-06T03:57:43.506Z,1011.74
2018-09-06T03:58:43.498Z,1011.72
2018-09-06T03:59:43.475Z,1011.72
2018-09-06T04:00:43.458Z,1011.73
2018-09-06T04:01:43.441Z,1011.67
2018-09-06T04:02:43.430Z,1011.72
2018-09-06T04:03:43.416Z,1011.71
2018-09-06T04:04:43.395Z,1011.72
2018-09-06T04:05:43.380Z,1011.66
2018-09-06T04:06:43.367Z,1011.66
2018-09-06T04:07:43.344Z,1011.66
2018-09-06T04:08:43.329Z,1011.65
2018-09-06T04:09:43.318Z,1011.67
2018-09-06T04:10:43.299Z,1011.66
2018-09-06T04:11:43.284Z,1011.65
2018-09-06T04:12:43.266Z,1011.70
2018-09-06T04:13:43.250Z,1011.65
2018-09-06T04:14:43.237Z,1011.65
2018-09-06T04:15:43.219Z,1011.68
2018-09-06T04:16:43.205Z,1011.68
2018-09-06T04:17:43.188Z,1011.65
2018-09-06T04:18:43.179Z,1011.67
2018-09-06T04:19:43.165Z,1011.66
2018-09-06T04:20:43.140Z,1011.63
2018-09-06T04:21:43.130Z,1011.64
2018-09-06T04:22:43.108Z,1011.59
2018-09-06T04:23:43.142Z,1011.62
2018-09-06T04:24:43.076Z,1011.61
2018-09-06T04:25:43.059Z,1011.62
2018-09-06T04:26:43.046Z,1011.58
2018-09-06T04:27:43.028Z,1011.61
2018-09-06T04:28:43.010Z,1011.62
2018-09-06T04:29:42.994Z,1011.62
2018-09-06T04:30:42.983Z,1011.65
2018-09-06T04:31:42.964Z,1011.62
2018-09-06T04:32:42.946Z,1011.62
2018-09-06T04:33:42.932Z,1011.65
2018-09-06T04:34:42.920Z,1011.61
2018-09-06T04:35:42.902Z,1011.69
2018-09-06T04:36:42.882Z,1011.71
2018-09-06T04:37:42.872Z,1011.70
2018-09-06T04:38:42.850Z,1011.76
2018-09-06T04:39:42.840Z,1011.73
2018-09-06T04:40:42.819Z,1011.70
2018-09-06T04:41:42.801Z,1011.73
2018-09-06T04:42:42.988Z,1011.68
2018-09-06T04:43:42.793Z,1011.74
2018-09-06T04:44:42.755Z,1011.72
2018-09-06T04:45:42.736Z,1011.72
2018-09-06T04:46:42.728Z,1011.69
2018-09-06T04:47:42.704Z,1011.67
2018-09-06T04:48:42.688Z,1011.69
2018-09-06T04:49:42.676Z,1011.68
2018-09-06T04:50:42.656Z,1011.75
2018-09-06T04:51:42.642Z,1011.72
2018-09-06T04:52:42.622Z,1011.75
2018-09-06T04:53:42.606Z,1011.72
2018-09-06T04:54:42.591Z,1011.71
2018-09-06T04:55:42.575Z,1011.70
2018-09-06T04:56:42.558Z,1011.71
2018-09-06T04:57:42.551Z,1011.70
2018-09-06T04:58:42.528Z,1011.68
2018-09-06T04:59:42.509Z,1011.69
2018-09-06T05:00:42.492Z,1011.71
2018-09-06T05:01:42.478Z,1011.67
2018-09-06T05:02:42.462Z,1011.70
2018-09-06T05:03:42.445Z,1011.72
2018-09-06T05:04:42.432Z,1011.77
2018-09-06T05:05:42.413Z,1011.76
2018-09-06T05:06:42.397Z,1011.77
2018-09-06T05:07:43.795Z,1011.76
2018-09-06T05:08:42.365Z,1011.78
2018-09-06T05:09:42.349Z,1011.77
2018-09-06T05:11:43.125Z,1011.79
2018-09-06T05:13:42.287Z,1011.81
2018-09-06T05:17:42.218Z,1011.83
2018-09-06T05:19:42.187Z,1011.83
2018-09-06T05:21:42.151Z,1011.86
2018-09-06T05:23:42.122Z,1011.86
2018-09-06T05:24:42.105Z,1011.90
2018-09-06T05:26:42.072Z,1011.89
2018-09-06T05:27:42.071Z,1011.89
2018-09-06T05:28:42.049Z,1011.88
2018-09-06T05:29:42.025Z,1011.88
2018-09-06T05:30:42.065Z,1011.87
2018-09-06T05:31:43.411Z,1011.90
2018-09-06T05:32:41.980Z,1011.89
2018-09-06T05:33:41.960Z,1011.90
2018-09-06T05:34:41.944Z,1011.87
2018-09-06T05:35:41.927Z,1011.86
2018-09-06T05:36:41.922Z,1011.90
2018-09-06T05:37:41.905Z,1011.90
2018-09-06T05:38:41.883Z,1011.94
2018-09-06T05:39:41.866Z,1011.98
2018-09-06T05:40:41.846Z,1011.98
2018-09-06T05:41:41.829Z,1011.96
2018-09-06T05:42:41.814Z,1011.96
2018-09-06T05:43:41.798Z,1011.97
2018-09-06T05:44:41.785Z,1012.00
2018-09-06T05:45:41.767Z,1011.93
2018-09-06T05:46:41.749Z,1011.95
2018-09-06T05:47:41.739Z,1011.96
2018-09-06T05:48:41.719Z,1011.93
2018-09-06T05:49:41.709Z,1011.93
2018-09-06T05:50:41.686Z,1011.95
2018-09-06T05:51:41.677Z,1011.92
2018-09-06T05:52:41.651Z,1011.98
2018-09-06T05:53:41.636Z,1011.97
2018-09-06T05:54:41.622Z,1012.03
2018-09-06T05:55:41.604Z,1012.01
2018-09-06T05:56:41.596Z,1012.06
2018-09-06T05:58:44.798Z,1012.06
2018-09-06T05:59:41.613Z,1012.02
2018-09-06T06:00:41.528Z,1012.05
2018-09-06T06:01:41.510Z,1012.02
2018-09-06T06:02:41.494Z,1012.02
2018-09-06T06:03:41.490Z,1012.02
2018-09-06T06:04:41.462Z,1012.06
2018-09-06T06:05:41.454Z,1012.01
2018-09-06T06:06:41.430Z,1012.00
2018-09-06T06:07:41.421Z,1011.97
2018-09-06T06:08:41.398Z,1011.97
2018-09-06T06:09:41.384Z,1011.98
2018-09-06T06:10:41.368Z,1012.02
2018-09-06T06:11:41.368Z,1012.10
2018-09-06T06:12:41.336Z,1012.00
2018-09-06T06:13:41.318Z,1012.01
2018-09-06T06:14:41.302Z,1012.02
2018-09-06T06:15:41.293Z,1012.02
2018-09-06T06:16:41.272Z,1011.95
2018-09-06T06:17:41.256Z,1012.00
2018-09-06T06:18:41.239Z,1011.95
2018-09-06T06:19:41.227Z,1011.92
2018-09-06T06:20:41.209Z,1011.97
2018-09-06T06:21:41.196Z,1011.99
2018-09-06T06:22:41.176Z,1011.93
2018-09-06T06:23:41.162Z,1011.98
2018-09-06T06:24:41.144Z,1011.98
2018-09-06T06:25:41.130Z,1012.00
2018-09-06T06:26:41.128Z,1011.98
2018-09-06T06:27:41.098Z,1011.97
2018-09-06T06:28:41.081Z,1012.01
2018-09-06T06:29:41.069Z,1012.00
2018-09-06T06:30:41.051Z,1012.05
2018-09-06T06:31:41.035Z,1011.99
2018-09-06T06:32:41.019Z,1012.02
2018-09-06T06:33:41.007Z,1012.01
2018-09-06T06:34:40.990Z,1012.06
2018-09-06T06:35:40.975Z,1012.08
2018-09-06T06:36:40.961Z,1011.98
2018-09-06T06:37:40.945Z,1012.18
2018-09-06T06:38:40.928Z,1012.13
2018-09-06T06:39:40.964Z,1012.15
2018-09-06T06:40:40.895Z,1012.12
2018-09-06T06:41:40.880Z,1012.08
2018-09-06T06:42:41.271Z,1012.12
2018-09-06T06:43:40.850Z,1012.13
2018-09-06T06:44:40.843Z,1012.15
2018-09-06T06:45:40.821Z,1012.12
2018-09-06T06:46:40.809Z,1012.13
2018-09-06T06:47:40.790Z,1012.21
2018-09-06T06:48:41.786Z,1012.26
2018-09-06T06:49:40.760Z,1012.07
2018-09-06T06:50:40.744Z,1012.02
2018-09-06T06:51:40.740Z,1012.17
2018-09-06T06:52:40.714Z,1012.09
2018-09-06T06:53:40.707Z,1011.97
2018-09-06T06:54:40.684Z,1012.02
2018-09-06T06:55:40.669Z,1012.03
2018-09-06T06:56:40.654Z,1012.07
2018-09-06T06:57:40.647Z,1012.00
2018-09-06T06:58:40.671Z,1012.01
2018-09-06T06:59:40.609Z,1011.98
2018-09-06T07:00:40.595Z,1012.02
2018-09-06T07:01:40.581Z,1012.02
2018-09-06T07:02:40.564Z,1012.05
2018-09-06T07:03:40.554Z,1012.31
2018-09-06T07:04:40.563Z,1012.32
2018-09-06T07:05:40.522Z,1012.37
2018-09-06T07:06:40.512Z,1012.68
2018-09-06T07:07:40.493Z,1012.70
2018-09-06T07:08:40.477Z,1012.76
2018-09-06T07:09:41.075Z,1012.77
2018-09-06T07:10:40.457Z,1012.84
2018-09-06T07:11:40.438Z,1012.89
2018-09-06T07:12:40.422Z,1012.91
2018-09-06T07:13:40.414Z,1013.03
2018-09-06T07:14:40.398Z,1013.07
2018-09-06T07:15:40.389Z,1013.09
2018-09-06T07:16:40.377Z,1013.13
2018-09-06T07:17:40.360Z,1013.18
2018-09-06T07:18:40.434Z,1013.26
2018-09-06T07:19:40.341Z,1013.45
2018-09-06T07:20:40.323Z,1013.57
2018-09-06T07:21:40.314Z,1013.77
2018-09-06T07:22:40.304Z,1014.03
2018-09-06T07:23:40.289Z,1014.35
2018-09-06T07:24:40.276Z,1014.73
2018-09-06T07:25:40.266Z,1015.26
2018-09-06T07:26:40.256Z,1015.84
2018-09-06T07:27:40.247Z,1015.89
2018-09-06T07:28:40.234Z,1016.62
2018-09-06T07:29:40.229Z,1017.57
2018-09-06T07:30:40.297Z,1018.34
2018-09-06T07:31:40.206Z,1019.46
2018-09-06T07:32:40.192Z,1020.13
2018-09-06T07:33:40.185Z,1020.22
2018-09-06T07:34:40.179Z,1020.16
2018-09-06T07:35:40.174Z,1019.95
2018-09-06T07:36:42.777Z,1019.89
2018-09-06T07:37:40.148Z,1020.46
2018-09-06T07:38:40.140Z,1021.60
2018-09-06T07:39:40.135Z,1022.77
2018-09-06T07:40:40.123Z,1023.75
2018-09-06T07:41:40.116Z,1025.24
2018-09-06T07:42:40.107Z,1026.29
2018-09-06T07:43:40.103Z,1026.82
2018-09-06T07:44:40.094Z,1026.28
2018-09-06T07:45:40.088Z,1026.08
2018-09-06T07:46:40.128Z,1025.69
2018-09-06T07:47:40.072Z,1025.58
2018-09-06T07:48:40.062Z,1026.33
2018-09-06T07:49:40.056Z,1027.44
2018-09-06T07:50:40.057Z,1028.28
2018-09-06T07:51:40.043Z,1029.21
2018-09-06T07:52:40.046Z,1029.42
2018-09-06T07:53:40.031Z,1029.01
2018-09-06T07:54:40.024Z,1028.25
2018-09-06T07:55:40.018Z,1027.94
2018-09-06T07:56:40.015Z,1027.72
2018-09-06T07:57:40.008Z,1027.72
2018-09-06T07:58:40.022Z,1028.38
2018-09-06T07:59:40.016Z,1029.26
2018-09-06T08:00:39.990Z,1030.08
2018-09-06T08:01:39.998Z,1030.20
2018-09-06T08:02:39.979Z,1029.49
2018-09-06T08:03:39.971Z,1029.09
2018-09-06T08:04:39.970Z,1029.83
2018-09-06T08:05:39.965Z,1030.37
2018-09-06T08:06:39.971Z,1031.08
2018-09-06T08:07:39.955Z,1031.47
2018-09-06T08:08:39.946Z,1031.62
2018-09-06T08:09:39.943Z,1031.95
2018-09-06T08:10:39.936Z,1031.73
2018-09-06T08:11:39.933Z,1031.99
2018-09-06T08:12:39.927Z,1031.58
2018-09-06T08:13:39.922Z,1031.71
2018-09-06T08:14:39.917Z,1031.79
2018-09-06T08:15:39.913Z,1032.62
2018-09-06T08:16:39.909Z,1032.51
2018-09-06T08:17:39.904Z,1032.13
2018-09-06T08:18:39.933Z,1031.97
2018-09-06T08:19:39.896Z,1031.80
2018-09-06T08:20:39.902Z,1032.02
2018-09-06T08:21:39.887Z,1032.66
2018-09-06T08:22:39.884Z,1033.05
2018-09-06T08:23:39.880Z,1032.13
2018-09-06T08:24:39.877Z,1031.49
2018-09-06T08:25:39.873Z,1030.86
2018-09-06T08:26:39.867Z,1031.14
2018-09-06T08:27:39.869Z,1031.92
2018-09-06T08:28:39.859Z,1032.16
2018-09-06T08:29:39.853Z,1031.26
2018-09-06T08:30:39.940Z,1030.44
2018-09-06T08:31:39.855Z,1030.09
2018-09-06T08:32:39.845Z,1029.07
2018-09-06T08:33:39.845Z,1029.05
2018-09-06T08:34:39.837Z,1027.46
2018-09-06T08:35:39.841Z,1024.41
2018-09-06T08:36:39.837Z,1023.06
2018-09-06T08:37:39.828Z,1023.12
2018-09-06T08:38:39.825Z,1022.58
2018-09-06T08:39:39.822Z,1021.17
2018-09-06T08:40:39.817Z,1021.56
2018-09-06T08:41:39.816Z,1022.42
2018-09-06T08:42:39.816Z,1023.59
2018-09-06T08:43:39.809Z,1024.86
2018-09-06T08:44:39.804Z,1024.71
2018-09-06T08:45:39.807Z,1023.01
2018-09-06T08:46:39.799Z,1021.06
2018-09-06T08:47:39.870Z,1019.88
2018-09-06T08:48:39.794Z,1020.11
2018-09-06T08:49:39.797Z,1020.56
2018-09-06T08:50:42.474Z,1019.82
2018-09-06T08:51:39.792Z,1018.93
2018-09-06T08:52:39.781Z,1017.88
2018-09-06T08:53:39.779Z,1016.52
2018-09-06T08:54:39.776Z,1016.17
2018-09-06T08:55:39.773Z,1016.61
2018-09-06T08:56:39.774Z,1017.70
2018-09-06T08:57:39.769Z,1018.57
2018-09-06T08:58:39.856Z,1019.88
2018-09-06T08:59:39.763Z,1019.86
2018-09-06T09:00:39.769Z,1017.88
2018-09-06T09:01:39.757Z,1016.68
2018-09-06T09:02:39.817Z,1016.45
2018-09-06T09:03:39.758Z,1015.74
2018-09-06T09:04:39.808Z,1015.47
2018-09-06T09:05:39.752Z,1015.60
2018-09-06T09:06:39.748Z,1015.26
2018-09-06T09:07:39.865Z,1014.83
2018-09-06T09:08:39.745Z,1014.43
2018-09-06T09:09:39.744Z,1014.53
2018-09-06T09:10:39.739Z,1014.39
2018-09-06T09:11:39.737Z,1013.99
2018-09-06T09:12:39.735Z,1013.65
2018-09-06T09:13:39.735Z,1013.30
2018-09-06T09:14:39.732Z,1013.15
2018-09-06T09:15:39.736Z,1012.82
2018-09-06T09:16:39.727Z,1012.73
2018-09-06T09:17:39.725Z,1012.61
2018-09-06T09:18:39.722Z,1012.56
2018-09-06T09:19:39.722Z,1012.46
2018-09-06T09:20:39.722Z,1012.46
2018-09-06T09:21:39.823Z,1012.45
2018-09-06T09:22:40.124Z,1012.43
2018-09-06T09:23:39.716Z,1012.51
2018-09-06T09:24:39.713Z,1012.46
2018-09-06T09:25:39.797Z,1012.45
2018-09-06T09:26:39.714Z,1012.41
2018-09-06T09:27:39.709Z,1012.41
2018-09-06T09:28:39.707Z,1012.39
2018-09-06T09:29:39.706Z,1012.47
2018-09-06T09:30:39.753Z,1012.48
2018-09-06T09:31:39.704Z,1012.40
2018-09-06T09:32:39.702Z,1012.38
2018-09-06T09:33:39.700Z,1012.05
2018-09-06T09:34:39.702Z,1011.91
2018-09-06T09:35:39.699Z,1011.85
2018-09-06T09:36:39.696Z,1011.78
2018-09-06T09:37:39.704Z,1011.74
2018-09-06T09:38:39.700Z,1011.79
2018-09-06T09:39:39.690Z,1011.94
2018-09-06T09:40:39.688Z,1012.10
2018-09-06T09:41:39.686Z,1012.02
2018-09-06T09:42:39.685Z,1011.80
2018-09-06T09:43:39.683Z,1011.74
2018-09-06T09:44:39.681Z,1011.98
2018-09-06T09:45:39.678Z,1012.36
2018-09-06T09:47:58.619Z,1012.47
2018-09-06T09:48:58.620Z,1012.43
2018-09-06T09:49:58.618Z,1012.50
2018-09-06T09:50:58.614Z,1012.57
2018-09-06T09:51:58.615Z,1012.58
2018-09-06T09:52:58.609Z,1012.57
2018-09-06T09:53:58.611Z,1012.51
2018-09-06T09:54:58.605Z,1012.47
2018-09-06T09:55:58.607Z,1012.49
2018-09-06T09:56:58.605Z,1012.50
2018-09-06T09:57:58.600Z,1012.52
2018-09-06T09:58:58.600Z,1012.54
2018-09-06T09:59:58.596Z,1012.54
2018-09-06T10:00:58.600Z,1012.48
2018-09-06T10:01:58.600Z,1012.49
2018-09-06T10:02:58.600Z,1012.46
2018-09-06T10:03:58.590Z,1012.52
2018-09-06T10:04:58.592Z,1012.52
2018-09-06T10:05:58.589Z,1012.53
2018-09-06T10:06:58.587Z,1012.51
2018-09-06T10:07:58.583Z,1012.48
2018-09-06T10:08:58.587Z,1012.47
2018-09-06T10:09:58.584Z,1012.52
2018-09-06T10:10:58.580Z,1012.44
2018-09-06T10:11:58.581Z,1012.44
2018-09-06T10:12:58.579Z,1012.42
2018-09-06T10:13:58.581Z,1012.44
2018-09-06T10:14:58.577Z,1012.44
2018-09-06T10:15:58.575Z,1012.38
2018-09-06T10:16:58.575Z,1012.44
2018-09-06T10:17:58.650Z,1012.39
2018-09-06T10:18:58.574Z,1012.44
2018-09-06T10:19:58.578Z,1012.45
2018-09-06T10:20:58.580Z,1012.40
2018-09-06T10:21:58.577Z,1012.42
2018-09-06T10:22:58.576Z,1012.36
2018-09-06T10:23:58.572Z,1012.42
2018-09-06T10:24:58.576Z,1012.35
2018-09-06T10:25:58.571Z,1012.41
2018-09-06T10:26:58.573Z,1012.40
2018-09-06T10:27:58.571Z,1012.48
2018-09-06T10:28:58.574Z,1012.43
2018-09-06T10:29:58.572Z,1012.34
2018-09-06T10:30:58.571Z,1012.36
2018-09-06T10:31:58.571Z,1012.32
2018-09-06T10:32:58.571Z,1012.34
2018-09-06T10:33:58.571Z,1012.34
2018-09-06T10:34:58.582Z,1012.33
2018-09-06T10:35:58.573Z,1012.32
2018-09-06T10:36:58.574Z,1012.40
2018-09-06T10:37:58.571Z,1012.44
2018-09-06T10:38:58.576Z,1012.44
2018-09-06T10:39:58.665Z,1012.45
2018-09-06T10:40:58.575Z,1012.50
2018-09-06T10:41:58.574Z,1012.56
2018-09-06T10:42:58.611Z,1012.58
2018-09-06T10:43:58.579Z,1012.65
2018-09-06T10:44:58.580Z,1012.61
2018-09-06T10:45:58.577Z,1012.62
2018-09-06T10:46:58.582Z,1012.63
2018-09-06T10:47:58.700Z,1012.64
2018-09-06T10:48:58.581Z,1012.60
2018-09-06T10:49:58.582Z,1012.57
2018-09-06T10:50:58.582Z,1012.59
2018-09-06T10:51:58.586Z,1012.57
2018-09-06T10:52:58.583Z,1012.54
2018-09-06T10:53:58.589Z,1012.50
2018-09-06T10:54:58.588Z,1012.48
2018-09-06T10:55:58.587Z,1012.54
2018-09-06T10:56:58.588Z,1012.42
2018-09-06T10:57:58.590Z,1012.45
2018-09-06T10:58:58.600Z,1010.61
2018-09-06T10:59:58.596Z,1010.66
2018-09-06T11:00:58.594Z,1010.63
2018-09-06T11:01:58.595Z,1010.82
2018-09-06T11:02:58.604Z,1012.41
2018-09-06T11:03:58.596Z,1012.36
2018-09-06T11:04:58.601Z,1012.36
2018-09-06T11:05:58.600Z,1012.24
2018-09-06T11:06:58.598Z,1012.24
2018-09-06T11:07:58.681Z,1010.60
2018-09-06T11:08:58.606Z,1010.84
2018-09-06T11:09:58.602Z,1010.62
2018-09-06T11:10:58.601Z,1010.49
2018-09-06T11:11:58.606Z,1010.53
2018-09-06T11:12:58.606Z,1011.81
2018-09-06T11:13:58.603Z,1011.97
2018-09-06T11:14:58.645Z,1011.99
2018-09-06T11:15:58.602Z,1012.00
2018-09-06T11:16:58.606Z,1011.95
2018-09-06T11:17:58.637Z,1011.91
2018-09-06T11:18:58.602Z,1011.96
2018-09-06T11:19:58.601Z,1011.99
2018-09-06T11:20:58.610Z,1011.97
2018-09-06T11:21:58.740Z,1011.98
2018-09-06T11:22:58.600Z,1011.90
2018-09-06T11:23:58.601Z,1011.86
2018-09-06T11:24:58.603Z,1011.75
2018-09-06T11:25:58.603Z,1011.30
2018-09-06T11:26:58.603Z,1010.79
2018-09-06T11:27:58.704Z,1011.67
2018-09-06T11:28:58.604Z,1010.59
2018-09-06T11:29:58.610Z,1010.46
2018-09-06T11:30:58.605Z,1010.50
2018-09-06T11:31:58.601Z,1010.44
2018-09-06T11:32:58.605Z,1010.86
2018-09-06T11:33:58.607Z,1011.48
2018-09-06T11:34:58.608Z,1011.53
2018-09-06T11:35:58.601Z,1011.48
2018-09-06T11:36:58.607Z,1011.41
2018-09-06T11:37:58.606Z,1011.46
2018-09-06T11:38:58.600Z,1010.40
2018-09-06T11:39:58.620Z,1010.41
2018-09-06T11:40:58.601Z,1010.45
2018-09-06T11:41:58.619Z,1010.39
2018-09-06T11:42:58.599Z,1010.40
2018-09-06T11:43:58.626Z,1010.35
2018-09-06T11:44:58.603Z,1010.35
2018-09-06T11:45:58.602Z,1011.19
2018-09-06T11:46:58.607Z,1011.10
2018-09-06T11:47:58.655Z,1011.13
2018-09-06T11:48:58.595Z,1010.17
2018-09-06T11:49:58.595Z,1010.23
2018-09-06T11:50:58.592Z,1010.17
2018-09-06T11:51:58.592Z,1010.49
2018-09-06T11:52:58.595Z,1011.00
2018-09-06T11:53:58.593Z,1011.02
2018-09-06T11:54:58.588Z,1010.93
2018-09-06T11:55:58.588Z,1010.89
2018-09-06T11:56:58.586Z,1010.83
2018-09-06T11:57:58.586Z,1010.91
2018-09-06T11:58:58.584Z,1010.87
2018-09-06T11:59:58.583Z,1010.56
2018-09-06T12:00:58.581Z,1010.12
2018-09-06T12:01:58.614Z,1010.92
2018-09-06T12:02:58.581Z,1010.86
2018-09-06T12:03:58.578Z,1010.83
2018-09-06T12:04:58.577Z,1010.87
2018-09-06T12:05:58.605Z,1010.88
2018-09-06T12:06:58.576Z,1010.84
2018-09-06T12:07:58.576Z,1010.91
2018-09-06T12:08:58.574Z,1010.89
2018-09-06T12:09:58.574Z,1010.73
2018-09-06T12:10:58.576Z,1010.08
2018-09-06T12:11:58.596Z,1010.07
2018-09-06T12:12:58.576Z,1010.01
2018-09-06T12:13:58.573Z,1010.03
2018-09-06T12:14:58.570Z,1010.01
2018-09-06T12:15:58.569Z,1009.95
2018-09-06T12:16:58.572Z,1009.95